Brandon, TX

5:03 AM CDT on September 27, 2016 (GMT -0500)
Hillsboro

Weather History for KINJ - November, 2012

Change the Weather History Date:

Sunday, November 18, 2012

  Actual Average (KACT) Record (KACT)
Temperature  
Mean Temperature 58 °F 56 °F  
Max Temperature 69 °F 67 °F 84 °F (1986)
Min Temperature 46 °F 46 °F 20 °F (1959)
Degree Days  
Heating Degree Days 8 9  
Month to date heating degree days 122  
Since 1 July heating degree days 189  
Cooling Degree Days 0 1  
Month to date cooling degree days 30  
Year to date cooling degree days 2786  
Growing Degree Days 8 (Base 50)    
Moisture  
Dew Point 33 °F    
Average Humidity 40    
Maximum Humidity 62    
Minimum Humidity 23    
Precipitation  
Precipitation 0.00 in 0.09 in 1.23 in (1944)
Month to date precipitation 1.82  
Year to date precipitation 30.94  
Snow  
Snow 0.00 in 0.00 in T in (1969)
Month to date snowfall 0.0  
Since 1 July snowfall 0.0  
Since 1 September snowfall 0.0  
Snow Depth -    
Sea Level Pressure  
Sea Level Pressure 30.25 in    
Wind  
Wind Speed 10 mph (SE)    
Max Wind Speed 17 mph    
Max Gust Speed 23 mph    
Visibility 10 miles    
Events      
T = Trace of Precipitation, MM = Missing Value Source: NWS Daily Summary

Daily Weather History Graph

Daily Weather History Graph

Search for Another Location

Airport or City:

Trip Planner

Search our weather history database for the weather conditions in past years. The results will help you decide how hot, cold, wet, or windy it might be!

Date:

Astronomy

Nov. 18, 2012 Rise Set
Actual Time 7:00 AM CST 5:26 PM CST
Civil Twilight 6:34 AM CST 5:52 PM CST
Nautical Twilight 6:04 AM CST 6:22 PM CST
Astronomical Twilight 5:35 AM CST 6:51 PM CST
Moon 11:31 AM CST (11/18) 10:42 PM CST (11/18)
Length of Visible Light 11h 18m
Length of Day
10h 26m
Waxing Crescent, 30% of the Moon is Illuminated
Nov 18
Waxing Crescent
Nov 20
First Quarter
Nov 28
Full
Dec 6
Last Quarter
Dec 13
New

Hourly Weather History & Observations

Time (CST) Temp. Windchill Dew Point Humidity Pressure Visibility Wind Dir Wind Speed Gust Speed Precip Events Conditions
12:15 AM 50.0 °F - 30.2 °F 47% 30.29 in 10.0 mi ESE 8.1 mph - N/A   Clear
12:35 AM 51.8 °F - 30.2 °F 44% 30.28 in 10.0 mi SE 6.9 mph - N/A   Clear
12:55 AM 51.8 °F - 30.2 °F 44% 30.28 in 10.0 mi SE 6.9 mph - N/A   Clear
1:15 AM 51.8 °F - 32.0 °F 47% 30.28 in 10.0 mi SE 9.2 mph - N/A   Clear
1:35 AM 51.8 °F - 32.0 °F 47% 30.28 in 10.0 mi SE 6.9 mph - N/A   Clear
1:55 AM 51.8 °F - 32.0 °F 47% 30.29 in 10.0 mi SE 8.1 mph - N/A   Clear
2:15 AM 51.8 °F - 32.0 °F 47% 30.28 in 10.0 mi ESE 9.2 mph - N/A   Clear
2:35 AM 51.8 °F - 32.0 °F 47% 30.28 in 10.0 mi ESE 11.5 mph - N/A   Clear
2:55 AM 51.8 °F - 32.0 °F 47% 30.27 in 10.0 mi ESE 12.7 mph - N/A   Clear
3:15 AM 51.8 °F - 32.0 °F 47% 30.27 in 10.0 mi ESE 11.5 mph - N/A   Clear
3:35 AM 51.8 °F - 32.0 °F 47% 30.27 in 10.0 mi ESE 12.7 mph - N/A   Clear
3:55 AM 50.0 °F - 32.0 °F 50% 30.26 in 10.0 mi ESE 11.5 mph - N/A   Clear
4:15 AM 50.0 °F - 32.0 °F 50% 30.26 in 10.0 mi ESE 11.5 mph - N/A   Clear
4:35 AM 50.0 °F - 32.0 °F 50% 30.26 in 10.0 mi SE 10.4 mph - N/A   Clear
4:55 AM 48.2 °F - 32.0 °F 54% 30.27 in 10.0 mi SE 9.2 mph - N/A   Clear
5:15 AM 46.4 °F 41.9 °F 32.0 °F 57% 30.27 in 10.0 mi SE 9.2 mph - N/A   Clear
5:35 AM 48.2 °F - 32.0 °F 54% 30.26 in 10.0 mi ESE 10.4 mph - N/A   Clear
5:55 AM 46.4 °F 42.9 °F 32.0 °F 57% 30.28 in 10.0 mi SE 6.9 mph - N/A   Clear
6:15 AM 46.4 °F 42.9 °F 32.0 °F 57% 30.28 in 10.0 mi SE 6.9 mph - N/A   Clear
6:35 AM 46.4 °F 41.9 °F 33.8 °F 62% 30.28 in 10.0 mi ESE 9.2 mph - N/A   Clear
6:55 AM 48.2 °F - 33.8 °F 58% 30.28 in 10.0 mi ESE 8.1 mph - N/A   Clear
7:15 AM 46.4 °F 42.9 °F 33.8 °F 62% 30.29 in 10.0 mi SE 6.9 mph - N/A   Clear
7:35 AM 48.2 °F - 33.8 °F 58% 30.28 in 10.0 mi SE 8.1 mph - N/A   Clear
7:55 AM 48.2 °F - 33.8 °F 58% 30.29 in 10.0 mi SE 6.9 mph - N/A   Clear
8:15 AM 50.0 °F - 35.6 °F 58% 30.31 in 10.0 mi SSE 5.8 mph - N/A   Clear
8:35 AM 51.8 °F - 35.6 °F 54% 30.31 in 10.0 mi SSE 5.8 mph - N/A   Clear
8:55 AM 53.6 °F - 37.4 °F 54% 30.30 in 10.0 mi SSE 6.9 mph - N/A   Clear
9:15 AM 55.4 °F - 37.4 °F 51% 30.30 in 10.0 mi SSE 11.5 mph - N/A   Clear
9:35 AM 57.2 °F - 37.4 °F 48% 30.29 in 10.0 mi SSE 10.4 mph - N/A   Clear
9:55 AM 59.0 °F - 37.4 °F 45% 30.30 in 10.0 mi SSE 11.5 mph - N/A   Clear
10:15 AM 60.8 °F - 35.6 °F 39% 30.30 in 10.0 mi SSE 13.8 mph - N/A   Clear
10:35 AM 59.0 °F - 35.6 °F 42% 30.32 in 10.0 mi SSE 10.4 mph - N/A   Clear
10:55 AM 60.8 °F - 35.6 °F 39% 30.31 in 10.0 mi SSE 11.5 mph - N/A   Clear
11:15 AM 62.6 °F - 37.4 °F 39% 30.30 in 10.0 mi South 10.4 mph - N/A   Clear
11:35 AM 62.6 °F - 35.6 °F 37% 30.29 in 10.0 mi SSE 12.7 mph - N/A   Clear
11:55 AM 64.4 °F - 35.6 °F 34% 30.28 in 10.0 mi South 11.5 mph 16.1 mph N/A   Clear
12:15 PM 68.0 °F - 35.6 °F 30% 30.26 in 10.0 mi South 10.4 mph - N/A   Clear
12:35 PM 68.0 °F - 35.6 °F 30% 30.25 in 10.0 mi SE 15.0 mph - N/A   Clear
12:55 PM 68.0 °F - 33.8 °F 28% 30.24 in 10.0 mi SSE 15.0 mph - N/A   Clear
1:15 PM 68.0 °F - 35.6 °F 30% 30.23 in 10.0 mi South 13.8 mph 23.0 mph N/A   Clear
1:35 PM 69.8 °F - 33.8 °F 27% 30.21 in 10.0 mi SSE 13.8 mph 19.6 mph N/A   Clear
1:55 PM 69.8 °F - 32.0 °F 25% 30.20 in 10.0 mi SSE 15.0 mph 21.9 mph N/A   Clear
2:15 PM 69.8 °F - 32.0 °F 25% 30.20 in 10.0 mi SE 17.3 mph - N/A   Clear
2:35 PM 69.8 °F - 33.8 °F 27% 30.20 in 10.0 mi SE 17.3 mph 21.9 mph N/A   Clear
2:55 PM 69.8 °F - 33.8 °F 27% 30.19 in 10.0 mi ESE 15.0 mph - N/A   Clear
3:15 PM 69.8 °F - 32.0 °F 25% 30.20 in 10.0 mi SSE 13.8 mph 18.4 mph N/A   Clear
3:35 PM 69.8 °F - 32.0 °F 25% 30.20 in 10.0 mi SSE 13.8 mph - N/A   Clear
3:55 PM 69.8 °F - 30.2 °F 23% 30.20 in 10.0 mi SSE 15.0 mph - N/A   Clear
4:15 PM 68.0 °F - 30.2 °F 24% 30.20 in 10.0 mi SSE 12.7 mph - N/A   Clear
4:35 PM 68.0 °F - 30.2 °F 24% 30.19 in 10.0 mi SSE 9.2 mph - N/A   Clear
4:55 PM 68.0 °F - 30.2 °F 24% 30.19 in 10.0 mi SE 9.2 mph - N/A   Clear
5:15 PM 66.2 °F - 30.2 °F 26% 30.20 in 10.0 mi SE 9.2 mph - N/A   Clear
5:35 PM 64.4 °F - 30.2 °F 28% 30.20 in 10.0 mi SE 8.1 mph - N/A   Clear
5:55 PM 64.4 °F - 32.0 °F 30% 30.20 in 10.0 mi SE 6.9 mph - N/A   Clear
6:15 PM 64.4 °F - 32.0 °F 30% 30.20 in 10.0 mi SE 9.2 mph - N/A   Clear
6:35 PM 64.4 °F - 32.0 °F 30% 30.21 in 10.0 mi SE 9.2 mph - N/A   Clear
6:55 PM 62.6 °F - 32.0 °F 32% 30.22 in 10.0 mi ESE 6.9 mph - N/A   Clear
7:15 PM 62.6 °F - 32.0 °F 32% 30.22 in 10.0 mi ESE 6.9 mph - N/A   Clear
7:35 PM 62.6 °F - 32.0 °F 32% 30.22 in 10.0 mi ESE 9.2 mph - N/A   Clear
7:55 PM 62.6 °F - 32.0 °F 32% 30.22 in 10.0 mi ESE 9.2 mph - N/A   Clear
8:15 PM 62.6 °F - 32.0 °F 32% 30.23 in 10.0 mi SE 10.4 mph - N/A   Clear
8:35 PM 60.8 °F - 32.0 °F 34% 30.23 in 10.0 mi SE 9.2 mph - N/A   Clear
8:55 PM 60.8 °F - 32.0 °F 34% 30.22 in 10.0 mi ESE 10.4 mph - N/A   Clear
9:15 PM 60.8 °F - 32.0 °F 34% 30.22 in 10.0 mi ESE 11.5 mph - N/A   Clear
9:35 PM 59.0 °F - 32.0 °F 36% 30.22 in 10.0 mi ESE 11.5 mph - N/A   Clear
9:55 PM 59.0 °F - 32.0 °F 36% 30.22 in 10.0 mi ESE 11.5 mph - N/A   Clear
10:15 PM 59.0 °F - 32.0 °F 36% 30.22 in 10.0 mi ESE 10.4 mph - N/A   Clear
10:35 PM 59.0 °F - 32.0 °F 36% 30.21 in 10.0 mi ESE 11.5 mph - N/A   Clear
11:15 PM 59.0 °F - 33.8 °F 39% 30.22 in 10.0 mi SE 10.4 mph - N/A   Clear
11:35 PM 59.0 °F - 33.8 °F 39% 30.22 in 10.0 mi SSE 11.5 mph - N/A   Clear
11:55 PM 60.8 °F - 33.8 °F 36% 30.21 in 10.0 mi SE 10.4 mph - N/A   Clear